Time;durP1;ratioP1;P1;durP2;ratioP2;P2;SDS_P1;SDS_P2;PMS_P1;PMS_P2;Temp;Humidity;BMP_temperature;BMP_pressure;BME280_temperature;BME280_humidity;BME280_pressure;Samples;Min_cycle;Max_cycle;Signal;HPM_P1;HPM_P2
2023/09/01 00:02:07;;;;;;;8.32;3.60;;;12.10;99.90;;;;;;5097912;28;20037;-62
2023/09/01 00:04:33;;;;;;;10.45;4.15;;;12.10;99.90;;;;;;5098994;28;20096;-62
2023/09/01 00:07:02;;;;;;;8.45;3.83;;;12.20;99.90;;;;;;5097509;28;20455;-61
2023/09/01 00:09:27;;;;;;;9.70;4.35;;;12.10;99.90;;;;;;5101573;28;20472;-61
2023/09/01 00:11:53;;;;;;;10.10;4.47;;;12.10;99.90;;;;;;5102227;28;20044;-61
2023/09/01 00:14:19;;;;;;;8.40;4.57;;;12.10;99.90;;;;;;5101257;28;20044;-61
2023/09/01 00:16:44;;;;;;;8.38;4.07;;;12.10;99.90;;;;;;5102374;28;20044;-61
2023/09/01 00:19:10;;;;;;;8.48;4.47;;;12.10;99.90;;;;;;5099514;28;20056;-62
2023/09/01 00:21:36;;;;;;;7.15;3.67;;;12.10;99.90;;;;;;5102293;28;20125;-62
2023/09/01 00:24:03;;;;;;;6.93;3.60;;;12.10;99.90;;;;;;5101106;28;20052;-61
2023/09/01 00:26:29;;;;;;;10.40;4.40;;;12.10;99.90;;;;;;5102279;28;20117;-62
2023/09/01 00:28:55;;;;;;;8.85;3.78;;;12.10;99.90;;;;;;5101786;28;20036;-62
2023/09/01 00:31:20;;;;;;;8.25;3.15;;;12.10;99.90;;;;;;5101466;28;20044;-62
2023/09/01 00:33:46;;;;;;;7.75;2.63;;;12.10;99.90;;;;;;5101816;28;20078;-62
2023/09/01 00:36:12;;;;;;;8.40;3.50;;;12.20;99.90;;;;;;5100897;28;20118;-62
2023/09/01 00:38:38;;;;;;;11.23;3.75;;;12.10;99.90;;;;;;5102069;28;20040;-63
2023/09/01 00:41:03;;;;;;;7.43;3.47;;;12.10;99.90;;;;;;5099438;28;20036;-62
2023/09/01 00:43:29;;;;;;;8.50;3.50;;;12.00;99.90;;;;;;5100336;28;20574;-63
2023/09/01 00:45:56;;;;;;;7.47;3.30;;;12.10;99.90;;;;;;5101045;28;20107;-57
2023/09/01 00:48:22;;;;;;;8.63;3.92;;;12.10;99.90;;;;;;5099876;28;20089;-62
2023/09/01 00:50:50;;;;;;;8.05;3.78;;;12.10;99.90;;;;;;5101417;28;20044;-62
2023/09/01 00:53:18;;;;;;;6.82;3.55;;;12.00;99.90;;;;;;5100323;28;20040;-62
2023/09/01 00:55:44;;;;;;;8.88;3.78;;;12.00;99.90;;;;;;5113018;28;20047;-62
2023/09/01 00:58:10;;;;;;;7.78;4.57;;;12.00;99.90;;;;;;5120621;28;20054;-61
2023/09/01 01:00:36;;;;;;;8.60;4.57;;;12.00;99.90;;;;;;5122059;28;20047;-61
2023/09/01 01:03:04;;;;;;;10.68;4.70;;;12.00;99.90;;;;;;5120889;28;20042;-61
2023/09/01 01:06:13;;;;;;;11.63;4.78;;;12.00;99.90;;;;;;5119662;28;20043;-62
2023/09/01 01:08:41;;;;;;;10.02;4.45;;;12.00;99.90;;;;;;5121637;28;20066;-60
2023/09/01 01:11:41;;;;;;;11.35;5.03;;;11.90;99.90;;;;;;5120638;28;20056;-62
2023/09/01 01:14:15;;;;;;;11.20;4.82;;;11.90;99.90;;;;;;5120548;28;20165;-61
2023/09/01 01:16:41;;;;;;;10.07;5.30;;;11.90;99.90;;;;;;5121670;28;20047;-61
2023/09/01 01:19:33;;;;;;;9.38;4.88;;;11.80;99.90;;;;;;5120186;28;20444;-62
2023/09/01 01:22:02;;;;;;;11.15;5.32;;;11.80;99.90;;;;;;5121523;28;20052;-61
2023/09/01 01:24:28;;;;;;;10.85;5.13;;;11.80;99.90;;;;;;5121057;28;20050;-62
2023/09/01 01:26:54;;;;;;;11.70;5.85;;;11.80;99.90;;;;;;5120670;28;20052;-62
2023/09/01 01:29:20;;;;;;;10.20;6.15;;;11.80;99.90;;;;;;5121314;28;20048;-61
2023/09/01 01:31:46;;;;;;;11.32;5.32;;;11.70;99.90;;;;;;5120323;28;20504;-62
2023/09/01 01:34:23;;;;;;;13.95;6.55;;;11.70;99.90;;;;;;5108493;27;20043;-61
2023/09/01 01:37:22;;;;;;;10.70;6.43;;;11.70;99.90;;;;;;5099653;28;20074;-62
2023/09/01 01:39:51;;;;;;;11.55;6.70;;;11.70;99.90;;;;;;5099970;28;20093;-60
2023/09/01 01:42:18;;;;;;;11.70;6.47;;;11.60;99.90;;;;;;5100861;28;20137;-63
2023/09/01 01:44:50;;;;;;;15.55;6.57;;;11.70;99.90;;;;;;5099303;28;20056;-61
2023/09/01 01:47:17;;;;;;;12.70;5.93;;;11.60;99.90;;;;;;5100824;28;20043;-61
2023/09/01 01:49:43;;;;;;;9.88;5.43;;;11.60;99.90;;;;;;5099252;28;20055;-62
2023/09/01 01:52:08;;;;;;;9.68;5.18;;;11.60;99.90;;;;;;5100585;28;20043;-61
2023/09/01 01:54:34;;;;;;;9.85;5.32;;;11.60;99.90;;;;;;5099788;28;20048;-62
2023/09/01 01:57:00;;;;;;;9.05;5.15;;;11.60;99.90;;;;;;5097687;28;20040;-61
2023/09/01 01:59:25;;;;;;;9.95;5.30;;;11.60;99.90;;;;;;5100486;28;20051;-62
2023/09/01 02:01:51;;;;;;;12.35;5.90;;;11.60;99.90;;;;;;5099271;28;20097;-62
2023/09/01 02:04:17;;;;;;;9.60;5.03;;;11.60;99.90;;;;;;5100466;28;20050;-62
2023/09/01 02:06:43;;;;;;;8.88;5.72;;;11.50;99.90;;;;;;5099166;28;20108;-62
2023/09/01 02:09:09;;;;;;;8.82;4.85;;;11.50;99.90;;;;;;5100441;28;20051;-62
2023/09/01 02:11:38;;;;;;;12.07;5.47;;;11.50;99.90;;;;;;5099721;28;20075;-61
2023/09/01 02:14:05;;;;;;;8.82;4.53;;;11.40;99.90;;;;;;5099067;28;20391;-62
2023/09/01 02:16:31;;;;;;;9.93;4.43;;;11.50;99.90;;;;;;5099800;28;20044;-62
2023/09/01 02:19:00;;;;;;;7.75;4.50;;;11.50;99.90;;;;;;5098583;28;20040;-61
2023/09/01 02:21:26;;;;;;;8.50;4.97;;;11.40;99.90;;;;;;5098475;28;20071;-61
2023/09/01 02:23:52;;;;;;;10.45;4.53;;;11.50;99.90;;;;;;5098343;28;20044;-62
2023/09/01 02:26:21;;;;;;;8.30;4.40;;;11.40;99.90;;;;;;5099769;28;20050;-61
2023/09/01 02:28:47;;;;;;;8.80;4.35;;;11.40;99.90;;;;;;5099340;28;20424;-61
2023/09/01 02:31:14;;;;;;;10.23;4.60;;;11.40;99.90;;;;;;5098366;28;20105;-62
2023/09/01 02:33:40;;;;;;;7.72;4.25;;;11.40;99.90;;;;;;5099531;28;20531;-61
2023/09/01 02:36:32;;;;;;;8.98;4.82;;;11.40;99.90;;;;;;5098529;28;20115;-62
2023/09/01 02:38:59;;;;;;;7.53;3.90;;;11.40;99.90;;;;;;5100248;28;20044;-62
2023/09/01 02:41:25;;;;;;;8.18;4.28;;;11.30;99.90;;;;;;5099161;28;20048;-61
2023/09/01 02:43:53;;;;;;;8.40;4.25;;;11.30;99.90;;;;;;5099031;28;20067;-61
2023/09/01 02:46:19;;;;;;;9.10;4.32;;;11.30;99.90;;;;;;5099478;28;20047;-62
2023/09/01 02:48:46;;;;;;;7.35;4.18;;;11.30;99.90;;;;;;5097860;28;20058;-62
2023/09/01 02:51:11;;;;;;;8.05;3.88;;;11.30;99.90;;;;;;5099184;28;20432;-61
2023/09/01 02:53:37;;;;;;;8.20;3.97;;;11.30;99.90;;;;;;5098205;28;20051;-62
2023/09/01 02:56:03;;;;;;;8.25;4.07;;;11.30;99.90;;;;;;5113030;28;20036;-61
2023/09/01 02:58:29;;;;;;;8.10;4.22;;;11.30;99.90;;;;;;5119233;28;20035;-62
2023/09/01 03:00:55;;;;;;;11.00;4.22;;;11.30;99.90;;;;;;5119364;28;20039;-62
2023/09/01 03:03:22;;;;;;;9.57;4.10;;;11.30;99.90;;;;;;5118644;28;20059;-62
2023/09/01 03:05:50;;;;;;;8.52;4.05;;;11.30;99.90;;;;;;5118463;28;20072;-62
2023/09/01 03:08:23;;;;;;;7.88;3.90;;;11.20;99.90;;;;;;5118354;28;20039;-62
2023/09/01 03:10:49;;;;;;;9.55;4.00;;;11.10;99.90;;;;;;5118638;28;20055;-62
2023/09/01 03:13:15;;;;;;;7.78;4.15;;;11.10;99.90;;;;;;5119827;28;20503;-62
2023/09/01 03:15:42;;;;;;;8.27;4.60;;;11.20;99.90;;;;;;5118804;28;20040;-62
2023/09/01 03:18:10;;;;;;;8.68;4.03;;;11.20;99.90;;;;;;5118894;28;20288;-63
2023/09/01 03:20:43;;;;;;;8.98;5.00;;;11.20;99.90;;;;;;5119364;28;20837;-61
2023/09/01 03:23:09;;;;;;;7.93;4.60;;;11.20;99.90;;;;;;5116650;28;20056;-63
2023/09/01 03:25:35;;;;;;;9.02;4.22;;;11.20;99.90;;;;;;5119523;28;20039;-63
2023/09/01 03:28:01;;;;;;;10.30;4.28;;;11.20;99.90;;;;;;5118094;28;20039;-62
2023/09/01 03:30:26;;;;;;;8.85;4.55;;;11.20;99.90;;;;;;5118223;28;20054;-63
2023/09/01 03:32:52;;;;;;;7.43;3.95;;;11.20;99.90;;;;;;5118611;28;20047;-62
2023/09/01 03:35:19;;;;;;;7.88;4.18;;;11.20;99.90;;;;;;5118999;28;20052;-62
2023/09/01 03:37:44;;;;;;;8.07;4.07;;;11.20;99.90;;;;;;5118163;28;20046;-63
2023/09/01 03:40:10;;;;;;;7.47;4.30;;;11.30;99.90;;;;;;5118604;28;20047;-62
2023/09/01 03:42:36;;;;;;;9.38;4.38;;;11.20;99.90;;;;;;5119192;28;20130;-62
2023/09/01 03:45:03;;;;;;;9.20;4.28;;;11.20;99.90;;;;;;5122112;28;20042;-62
2023/09/01 03:47:28;;;;;;;8.70;4.45;;;11.20;99.90;;;;;;5123451;27;20039;-62
2023/09/01 03:49:54;;;;;;;8.85;4.22;;;11.20;99.90;;;;;;5122440;28;20042;-63
2023/09/01 03:52:20;;;;;;;8.25;3.97;;;11.10;99.90;;;;;;5122479;28;20051;-62
2023/09/01 03:54:45;;;;;;;7.25;4.07;;;11.20;99.90;;;;;;5119688;28;20032;-62
2023/09/01 03:57:11;;;;;;;8.57;4.15;;;11.20;99.90;;;;;;5101200;28;20123;-62
2023/09/01 03:59:37;;;;;;;8.25;4.28;;;11.10;99.90;;;;;;5102750;28;20040;-62
2023/09/01 04:02:04;;;;;;;9.23;5.05;;;11.00;99.90;;;;;;5100012;28;20071;-63
2023/09/01 04:04:30;;;;;;;9.23;3.83;;;11.00;99.90;;;;;;5102832;28;20052;-62
2023/09/01 04:06:55;;;;;;;8.02;4.22;;;11.00;99.90;;;;;;5101769;28;20040;-62
2023/09/01 04:09:21;;;;;;;9.10;4.30;;;11.00;99.90;;;;;;5100984;28;20985;-61
2023/09/01 04:11:47;;;;;;;9.30;4.43;;;11.00;99.90;;;;;;5102113;28;20040;-62
2023/09/01 04:14:12;;;;;;;9.93;4.50;;;11.00;99.90;;;;;;5101326;28;20040;-62
2023/09/01 04:16:39;;;;;;;8.55;4.35;;;11.10;99.90;;;;;;5102131;28;20043;-62
2023/09/01 04:19:04;;;;;;;10.32;5.72;;;11.10;99.90;;;;;;5101039;28;20032;-62
2023/09/01 04:21:30;;;;;;;8.30;4.35;;;11.10;99.90;;;;;;5102371;28;20051;-62
2023/09/01 04:23:56;;;;;;;10.35;4.75;;;11.10;99.90;;;;;;5100841;28;20089;-62
2023/09/01 04:26:22;;;;;;;9.55;4.18;;;11.00;99.90;;;;;;5100600;28;20043;-62
2023/09/01 04:28:47;;;;;;;8.90;3.92;;;10.90;99.90;;;;;;5101733;28;20059;-63
2023/09/01 04:31:25;;;;;;;10.30;4.32;;;10.90;99.90;;;;;;5100788;28;20036;-62
2023/09/01 04:33:50;;;;;;;10.35;4.30;;;10.90;99.90;;;;;;5101729;28;20071;-62
2023/09/01 04:36:16;;;;;;;7.10;4.10;;;10.90;99.90;;;;;;5100744;28;20040;-63
2023/09/01 04:38:42;;;;;;;7.97;4.00;;;10.90;99.90;;;;;;5102199;28;20051;-62
2023/09/01 04:41:07;;;;;;;8.70;3.90;;;10.90;99.90;;;;;;5100539;28;20044;-62
2023/09/01 04:43:33;;;;;;;8.75;4.25;;;10.90;99.90;;;;;;5101583;28;20446;-62
2023/09/01 04:45:59;;;;;;;7.18;3.10;;;10.90;99.90;;;;;;5101208;28;20064;-62
2023/09/01 04:48:26;;;;;;;8.77;3.90;;;10.90;99.90;;;;;;5100336;28;20040;-62
2023/09/01 04:50:51;;;;;;;7.65;3.50;;;10.90;99.90;;;;;;5100831;28;20079;-62
2023/09/01 04:53:18;;;;;;;7.88;3.90;;;10.90;99.90;;;;;;5099582;28;20564;-62
2023/09/01 04:55:43;;;;;;;8.85;4.15;;;11.00;99.90;;;;;;5112366;28;20082;-62
2023/09/01 04:58:09;;;;;;;9.88;3.67;;;10.90;99.90;;;;;;5120762;28;20039;-62
2023/09/01 05:00:35;;;;;;;9.82;3.65;;;10.90;99.90;;;;;;5121750;28;20047;-62
2023/09/01 05:03:01;;;;;;;8.00;3.78;;;10.90;99.90;;;;;;5121269;28;20368;-61
2023/09/01 05:05:27;;;;;;;6.28;3.17;;;10.90;99.90;;;;;;5120955;28;20073;-62
2023/09/01 05:07:53;;;;;;;7.93;3.50;;;10.90;99.90;;;;;;5120164;28;20048;-62
2023/09/01 05:10:18;;;;;;;8.05;3.63;;;10.90;99.90;;;;;;5120160;28;20059;-62
2023/09/01 05:12:44;;;;;;;9.20;3.63;;;10.90;99.90;;;;;;5121545;27;20095;-62
2023/09/01 05:15:10;;;;;;;6.75;3.72;;;10.90;99.90;;;;;;5120286;28;20097;-62
2023/09/01 05:17:36;;;;;;;9.05;4.13;;;10.90;99.90;;;;;;5121615;28;20043;-62
2023/09/01 05:20:03;;;;;;;6.90;3.45;;;11.00;99.90;;;;;;5120380;28;20559;-63
2023/09/01 05:22:29;;;;;;;7.03;3.55;;;11.00;99.90;;;;;;5120398;28;20483;-60
2023/09/01 05:24:54;;;;;;;10.07;4.05;;;11.00;99.90;;;;;;5121179;28;20047;-62
2023/09/01 05:27:20;;;;;;;8.65;3.83;;;11.00;99.90;;;;;;5119715;28;20036;-62
2023/09/01 05:29:47;;;;;;;7.47;3.92;;;11.00;99.90;;;;;;5121287;28;20519;-62
2023/09/01 05:32:13;;;;;;;7.93;4.03;;;11.00;99.90;;;;;;5119697;28;20039;-62
2023/09/01 05:34:39;;;;;;;7.80;4.07;;;11.00;99.90;;;;;;5121455;28;20052;-62
2023/09/01 05:37:07;;;;;;;7.90;3.85;;;11.20;99.90;;;;;;5120531;28;20035;-61
2023/09/01 05:39:36;;;;;;;9.27;3.47;;;11.20;99.90;;;;;;5115694;28;20518;-62
2023/09/01 05:42:02;;;;;;;8.75;3.78;;;11.30;99.90;;;;;;5100503;28;20407;-62
2023/09/01 05:44:28;;;;;;;8.13;4.05;;;11.30;99.90;;;;;;5099230;28;20051;-62
2023/09/01 05:46:54;;;;;;;7.10;3.40;;;11.40;99.90;;;;;;5100566;28;20048;-62
2023/09/01 05:49:20;;;;;;;8.40;3.10;;;11.50;99.90;;;;;;5098924;28;20044;-62
2023/09/01 05:51:46;;;;;;;7.78;3.60;;;11.70;99.90;;;;;;5100890;28;20048;-62
2023/09/01 05:54:12;;;;;;;6.40;3.25;;;11.70;99.90;;;;;;5099237;28;20127;-61
2023/09/01 05:56:38;;;;;;;7.20;3.63;;;11.90;99.90;;;;;;5114709;28;20047;-61
2023/09/01 05:59:03;;;;;;;7.05;3.45;;;12.00;99.90;;;;;;5116839;28;20078;-61
2023/09/01 06:01:33;;;;;;;8.20;3.45;;;12.10;99.90;;;;;;5115647;28;20613;-61
2023/09/01 06:03:59;;;;;;;6.60;3.10;;;12.10;99.90;;;;;;5116588;28;20079;-61
2023/09/01 06:06:24;;;;;;;7.88;3.33;;;12.20;99.90;;;;;;5114527;28;20052;-61
2023/09/01 06:08:50;;;;;;;6.35;3.03;;;12.20;99.90;;;;;;5116382;28;20066;-61
2023/09/01 06:11:16;;;;;;;7.55;3.13;;;12.20;99.90;;;;;;5115650;28;20035;-61
2023/09/01 06:13:42;;;;;;;7.32;3.30;;;12.30;99.90;;;;;;5115970;28;20051;-62
2023/09/01 06:16:09;;;;;;;6.80;3.28;;;12.40;99.90;;;;;;5116340;28;20423;-61
2023/09/01 06:18:35;;;;;;;7.40;3.38;;;12.50;99.90;;;;;;5114617;28;20049;-62
2023/09/01 06:21:01;;;;;;;8.23;3.05;;;12.60;99.90;;;;;;5115851;28;20110;-62
2023/09/01 06:23:26;;;;;;;7.28;3.50;;;12.70;99.90;;;;;;5114906;28;20066;-61
2023/09/01 06:25:52;;;;;;;9.27;3.50;;;12.70;99.90;;;;;;5116266;28;20051;-61
2023/09/01 06:28:18;;;;;;;8.85;3.38;;;12.80;99.90;;;;;;5113565;28;20087;-61
2023/09/01 06:30:43;;;;;;;6.95;2.90;;;12.80;99.90;;;;;;5115400;28;20042;-61
2023/09/01 06:33:09;;;;;;;10.27;3.00;;;12.80;99.90;;;;;;5114629;28;20047;-62
2023/09/01 06:35:36;;;;;;;6.35;2.97;;;12.90;99.90;;;;;;5114848;28;20450;-62
2023/09/01 06:38:06;;;;;;;6.65;3.20;;;12.90;99.90;;;;;;5115953;28;20499;-62
2023/09/01 06:40:32;;;;;;;9.10;3.40;;;13.00;99.90;;;;;;5114613;28;20458;-61
2023/09/01 06:42:58;;;;;;;7.05;3.15;;;13.10;99.90;;;;;;5116329;28;20153;-61
2023/09/01 06:45:23;;;;;;;7.22;2.78;;;13.20;99.90;;;;;;5113894;28;20087;-61
2023/09/01 06:47:55;;;;;;;5.72;2.88;;;13.20;99.90;;;;;;5115003;28;20070;-61
2023/09/01 06:50:21;;;;;;;6.53;2.90;;;13.20;99.90;;;;;;5097095;28;20129;-62
2023/09/01 06:52:47;;;;;;;12.68;5.82;;;13.30;99.90;;;;;;5093712;28;20044;-61
2023/09/01 06:55:12;;;;;;;25.85;14.52;;;13.40;99.90;;;;;;5103322;28;20044;-61
2023/09/01 06:57:39;;;;;;;13.30;6.18;;;13.50;99.90;;;;;;5117525;28;20040;-61
2023/09/01 07:00:06;;;;;;;8.50;3.80;;;13.60;99.90;;;;;;5119572;28;20036;-61
2023/09/01 07:02:32;;;;;;;8.30;3.15;;;13.70;99.90;;;;;;5118792;28;20465;-61
2023/09/01 07:04:58;;;;;;;7.93;2.70;;;13.80;99.90;;;;;;5119219;28;20086;-62
2023/09/01 07:07:24;;;;;;;8.63;2.83;;;14.00;99.90;;;;;;5118852;28;20075;-61
2023/09/01 07:09:50;;;;;;;6.43;2.83;;;14.10;99.90;;;;;;5117827;28;20047;-62
2023/09/01 07:12:16;;;;;;;8.27;2.50;;;14.10;99.90;;;;;;5117277;28;20564;-61
2023/09/01 07:14:42;;;;;;;7.10;2.70;;;14.10;99.90;;;;;;5117118;28;20086;-62
2023/09/01 07:17:11;;;;;;;6.65;3.13;;;14.00;99.90;;;;;;5120052;28;20081;-62
2023/09/01 07:19:37;;;;;;;7.70;2.85;;;14.10;99.90;;;;;;5121969;28;20119;-61
2023/09/01 07:22:05;;;;;;;5.80;2.45;;;14.10;99.90;;;;;;5122825;28;20036;-64
2023/09/01 07:24:31;;;;;;;5.25;2.63;;;14.20;99.90;;;;;;5122651;28;20161;-63
2023/09/01 07:26:57;;;;;;;6.63;2.83;;;14.30;99.90;;;;;;5121996;28;20044;-64
2023/09/01 07:29:23;;;;;;;6.32;2.40;;;14.40;99.90;;;;;;5123323;28;20563;-63
2023/09/01 07:31:48;;;;;;;7.35;2.70;;;14.40;99.90;;;;;;5122111;28;20047;-62
2023/09/01 07:34:14;;;;;;;9.88;4.57;;;14.60;99.90;;;;;;5122169;28;20107;-62
2023/09/01 07:36:40;;;;;;;7.43;2.78;;;14.60;99.90;;;;;;5121797;28;20043;-62
2023/09/01 07:39:05;;;;;;;6.63;2.85;;;14.80;99.90;;;;;;5123415;28;20069;-62
2023/09/01 07:41:32;;;;;;;6.13;2.63;;;14.90;99.90;;;;;;5122845;28;20039;-62
2023/09/01 07:43:57;;;;;;;7.70;3.13;;;14.90;99.90;;;;;;5121659;28;20270;-62
2023/09/01 07:46:23;;;;;;;6.65;2.58;;;15.00;99.90;;;;;;5121755;27;20100;-60
2023/09/01 07:48:49;;;;;;;6.45;2.70;;;15.10;99.90;;;;;;5120971;28;20043;-61
2023/09/01 07:51:15;;;;;;;8.07;2.60;;;15.10;99.90;;;;;;5122312;28;20043;-62
2023/09/01 07:53:41;;;;;;;9.80;2.63;;;15.10;99.90;;;;;;5120203;28;20051;-62
2023/09/01 07:56:10;;;;;;;6.57;2.67;;;15.10;99.90;;;;;;5107039;28;20051;-62
2023/09/01 07:58:35;;;;;;;5.97;2.60;;;15.00;99.90;;;;;;5100966;28;20038;-62
2023/09/01 08:01:01;;;;;;;5.80;2.70;;;15.10;99.90;;;;;;5100687;28;20067;-62
2023/09/01 08:03:27;;;;;;;6.57;2.35;;;15.00;99.90;;;;;;5100268;28;20036;-62
2023/09/01 08:05:52;;;;;;;6.55;2.30;;;15.10;99.90;;;;;;5100922;28;20036;-62
2023/09/01 08:08:18;;;;;;;5.40;2.38;;;15.20;99.90;;;;;;5101908;28;20047;-62
2023/09/01 08:10:44;;;;;;;6.45;2.50;;;15.20;99.90;;;;;;5100262;28;20117;-62
2023/09/01 08:13:10;;;;;;;7.32;3.00;;;15.20;99.90;;;;;;5102071;28;20054;-62
2023/09/01 08:15:36;;;;;;;7.65;2.65;;;15.30;99.90;;;;;;5098429;28;20051;-62
2023/09/01 08:18:02;;;;;;;7.35;3.20;;;15.30;99.90;;;;;;5084077;28;20075;-61
2023/09/01 08:20:28;;;;;;;4.68;1.83;;;15.40;99.90;;;;;;5079852;28;20076;-62
2023/09/01 08:22:54;;;;;;;7.70;2.40;;;15.40;99.90;;;;;;5080150;28;20458;-61
2023/09/01 08:25:19;;;;;;;7.85;2.58;;;15.40;99.90;;;;;;5081235;28;20342;-62
2023/09/01 08:27:45;;;;;;;6.07;2.40;;;15.50;99.90;;;;;;5079738;28;20064;-60
2023/09/01 08:30:11;;;;;;;6.38;2.30;;;15.50;99.90;;;;;;5079888;28;20036;-61
2023/09/01 08:32:40;;;;;;;5.90;2.10;;;15.50;98.70;;;;;;5081025;28;20165;-61
2023/09/01 08:35:07;;;;;;;7.75;1.92;;;15.60;98.00;;;;;;5079416;28;20036;-59
2023/09/01 08:37:32;;;;;;;5.70;2.03;;;15.70;95.40;;;;;;5081668;28;20044;-61
2023/09/01 08:39:58;;;;;;;6.45;1.85;;;15.70;93.20;;;;;;5080212;28;20050;-61
2023/09/01 08:42:27;;;;;;;5.30;2.20;;;15.70;93.00;;;;;;5081220;28;20036;-62
2023/09/01 08:44:53;;;;;;;6.13;2.20;;;15.70;92.80;;;;;;5080079;28;20097;-61
2023/09/01 08:47:22;;;;;;;6.82;2.00;;;15.80;95.50;;;;;;5081510;28;20044;-62
2023/09/01 08:49:53;;;;;;;6.43;1.60;;;15.70;92.20;;;;;;5079898;28;20059;-61
2023/09/01 08:52:19;;;;;;;4.97;1.70;;;15.90;94.40;;;;;;5080817;28;20052;-62
2023/09/01 08:54:46;;;;;;;7.00;2.17;;;15.90;89.50;;;;;;5086810;28;20425;-61
2023/09/01 08:57:12;;;;;;;4.30;1.30;;;15.90;89.40;;;;;;5120732;28;20383;-62
2023/09/01 08:59:38;;;;;;;6.35;1.55;;;16.00;85.70;;;;;;5122003;28;20035;-62
2023/09/01 09:02:07;;;;;;;6.88;2.05;;;16.10;85.20;;;;;;5120443;28;20051;-62
2023/09/01 09:04:36;;;;;;;5.25;1.52;;;16.20;81.10;;;;;;5121870;28;20038;-62
2023/09/01 09:07:16;;;;;;;5.95;1.42;;;16.20;78.20;;;;;;5120982;28;20082;-62
2023/09/01 09:09:56;;;;;;;6.32;1.98;;;16.30;77.00;;;;;;5120758;28;20042;-61
2023/09/01 09:12:23;;;;;;;7.20;1.45;;;16.30;78.70;;;;;;5121581;28;20138;-61
2023/09/01 09:14:55;;;;;;;6.35;1.73;;;16.30;75.20;;;;;;5120461;28;20100;-61
2023/09/01 09:17:22;;;;;;;5.20;1.52;;;16.30;74.50;;;;;;5121425;28;20054;-62
2023/09/01 09:19:54;;;;;;;4.47;1.25;;;16.20;63.50;;;;;;5120587;28;20051;-61
2023/09/01 09:22:20;;;;;;;4.53;1.20;;;16.30;61.50;;;;;;5119341;28;20063;-61
2023/09/01 09:24:46;;;;;;;5.63;1.40;;;16.30;56.50;;;;;;5121042;27;20043;-61
2023/09/01 09:27:16;;;;;;;5.25;1.30;;;16.30;61.40;;;;;;5119569;28;20035;-61
2023/09/01 09:29:43;;;;;;;6.13;1.77;;;16.30;64.70;;;;;;5119716;28;20058;-61
2023/09/01 09:32:22;;;;;;;7.57;1.65;;;16.30;67.40;;;;;;5119804;28;20050;-61
2023/09/01 09:35:06;;;;;;;8.68;1.75;;;16.30;67.70;;;;;;5121215;28;20051;-63
2023/09/01 09:37:33;;;;;;;5.93;1.50;;;16.40;69.70;;;;;;5119912;28;20051;-62
2023/09/01 09:40:16;;;;;;;5.13;1.45;;;16.50;69.30;;;;;;5118847;28;20051;-63
2023/09/01 09:42:43;;;;;;;5.25;1.40;;;16.50;54.40;;;;;;5117913;28;20050;-62
2023/09/01 09:45:24;;;;;;;5.55;1.83;;;16.50;60.50;;;;;;5110101;28;20040;-61
2023/09/01 09:47:50;;;;;;;6.75;2.42;;;16.50;57.20;;;;;;5111889;28;20057;-62
2023/09/01 09:50:20;;;;;;;6.43;2.72;;;16.50;61.60;;;;;;5119655;28;20043;-61
2023/09/01 09:52:49;;;;;;;5.22;1.90;;;16.50;58.00;;;;;;5119381;28;20085;-62
2023/09/01 09:55:30;;;;;;;5.68;1.70;;;16.50;59.70;;;;;;5113318;28;20048;-62
2023/09/01 09:58:05;;;;;;;5.45;1.50;;;16.60;55.20;;;;;;5098577;28;20123;-62
2023/09/01 10:00:34;;;;;;;5.15;1.40;;;16.60;56.50;;;;;;5105281;28;20128;-62
2023/09/01 10:03:01;;;;;;;5.63;1.27;;;16.60;59.70;;;;;;5119385;28;20040;-61
2023/09/01 10:05:31;;;;;;;4.93;1.30;;;16.60;40.30;;;;;;5114758;28;20046;-62
2023/09/01 10:08:00;;;;;;;5.75;2.13;;;16.60;38.90;;;;;;5099832;28;20109;-62
2023/09/01 10:10:26;;;;;;;7.68;3.45;;;16.60;40.40;;;;;;5098315;28;20052;-62
2023/09/01 10:12:52;;;;;;;5.82;1.70;;;16.70;44.10;;;;;;5099729;28;20127;-62
2023/09/01 10:15:19;;;;;;;5.30;1.45;;;16.70;31.00;;;;;;5098632;28;20178;-61
2023/09/01 10:17:48;;;;;;;5.90;1.73;;;16.70;36.50;;;;;;5099431;28;20051;-61
2023/09/01 10:20:13;;;;;;;5.78;1.73;;;16.70;34.10;;;;;;5087981;28;20036;-61
2023/09/01 10:22:39;;;;;;;5.88;1.73;;;16.80;36.20;;;;;;5079382;28;20052;-62
2023/09/01 10:25:26;;;;;;;6.05;1.88;;;17.00;35.10;;;;;;5082026;28;20044;-60
2023/09/01 10:28:07;;;;;;;5.22;1.50;;;17.10;21.70;;;;;;5078603;28;20056;-61
2023/09/01 10:30:35;;;;;;;4.75;1.40;;;17.10;24.60;;;;;;5081655;28;20044;-61
2023/09/01 10:33:26;;;;;;;6.78;1.60;;;17.10;26.60;;;;;;5081117;28;20120;-62
2023/09/01 10:35:53;;;;;;;7.50;1.98;;;17.10;24.60;;;;;;5078175;28;20484;-64
2023/09/01 10:38:35;;;;;;;6.13;1.67;;;17.20;28.90;;;;;;5078136;28;20044;-62
2023/09/01 10:41:01;;;;;;;;;;;17.20;25.20;;;;;;5078989;28;20087;-63
2023/09/01 10:43:33;;;;;;;6.97;1.70;;;17.20;25.20;;;;;;5080706;28;19967;-62
2023/09/01 10:46:14;;;;;;;7.80;2.17;;;17.30;23.60;;;;;;5079381;28;20163;-61
2023/09/01 10:49:00;;;;;;;5.13;1.80;;;17.50;24.90;;;;;;5078611;28;20066;-62
2023/09/01 10:51:37;;;;;;;8.10;1.70;;;17.70;26.30;;;;;;5080330;28;20039;-62
2023/09/01 10:54:22;;;;;;;6.22;1.55;;;17.80;22.10;;;;;;5080685;28;20039;-63
2023/09/01 10:57:12;;;;;;;6.32;2.05;;;18.00;15.90;;;;;;5078470;28;20039;-62
2023/09/01 10:59:38;;;;;;;5.40;1.30;;;18.00;8.50;;;;;;5079899;28;20044;-62
2023/09/01 11:02:23;;;;;;;5.22;1.30;;;18.20;16.00;;;;;;5077895;28;20040;-62
2023/09/01 11:04:49;;;;;;;5.55;1.65;;;18.20;2.90;;;;;;5079714;28;20445;-62
2023/09/01 11:07:15;;;;;;;5.90;1.70;;;18.30;6.40;;;;;;5079902;28;20048;-62
2023/09/01 11:09:44;;;;;;;6.35;1.95;;;18.10;9.00;;;;;;5080790;28;20047;-62
2023/09/01 11:12:12;;;;;;;6.10;1.55;;;18.20;10.60;;;;;;5080275;28;20498;-62
2023/09/01 11:14:51;;;;;;;6.05;1.73;;;18.20;10.50;;;;;;5079732;28;20077;-61
2023/09/01 11:17:31;;;;;;;8.65;2.00;;;18.20;5.70;;;;;;5079940;28;20064;-61
2023/09/01 11:19:56;;;;;;;9.25;2.25;;;18.20;14.30;;;;;;5079454;28;20071;-60
2023/09/01 11:22:22;;;;;;;5.63;1.73;;;18.30;14.50;;;;;;5079286;28;20040;-61
2023/09/01 11:24:48;;;;;;;5.57;1.65;;;18.40;12.10;;;;;;5080148;28;20044;-61
2023/09/01 11:27:13;;;;;;;4.05;1.30;;;18.50;10.30;;;;;;5080126;28;20040;-60
2023/09/01 11:29:39;;;;;;;6.60;2.10;;;18.70;4.80;;;;;;5079662;28;20047;-61
2023/09/01 11:32:05;;;;;;;5.90;2.13;;;19.00;1.00;;;;;;5079515;28;20036;-61
2023/09/01 11:34:40;;;;;;;5.43;1.83;;;19.10;1.00;;;;;;5078754;28;20043;-61
2023/09/01 11:37:05;;;;;;;6.45;1.90;;;19.10;1.00;;;;;;5080342;28;20044;-60
2023/09/01 11:39:31;;;;;;;5.40;2.05;;;19.20;1.10;;;;;;5079731;28;20074;-61
2023/09/01 11:41:59;;;;;;;7.65;2.40;;;19.40;1.00;;;;;;5077090;28;20048;-61
2023/09/01 11:44:25;;;;;;;6.78;2.25;;;19.40;1.00;;;;;;5075550;28;20162;-61
2023/09/01 11:46:50;;;;;;;7.45;2.30;;;19.40;1.00;;;;;;5074253;28;20075;-61
2023/09/01 11:49:16;;;;;;;7.50;2.42;;;19.50;1.00;;;;;;5073920;28;20078;-60
2023/09/01 11:51:42;;;;;;;6.25;2.10;;;19.30;1.00;;;;;;5076647;28;20047;-61
2023/09/01 11:54:09;;;;;;;5.20;1.85;;;19.30;1.00;;;;;;5075002;28;20072;-61
2023/09/01 11:56:34;;;;;;;5.47;1.80;;;19.20;1.00;;;;;;5075177;28;20520;-61
2023/09/01 11:59:00;;;;;;;6.93;1.88;;;19.10;1.00;;;;;;5076632;28;20171;-61
2023/09/01 12:01:44;;;;;;;5.72;1.63;;;19.10;1.00;;;;;;5076852;28;20091;-61
2023/09/01 12:04:11;;;;;;;8.70;2.20;;;19.20;1.00;;;;;;5076936;28;20539;-61
2023/09/01 12:06:44;;;;;;;5.90;2.00;;;19.20;1.00;;;;;;5076981;28;20435;-61
2023/09/01 12:09:18;;;;;;;5.10;1.80;;;19.20;1.00;;;;;;5078240;28;20044;-61
2023/09/01 12:12:00;;;;;;;5.47;2.10;;;19.30;1.00;;;;;;5081790;28;20518;-62
2023/09/01 12:14:26;;;;;;;5.45;2.25;;;19.30;1.00;;;;;;5076053;28;20163;-60
2023/09/01 12:16:53;;;;;;;6.32;2.20;;;19.10;1.00;;;;;;5080902;28;20040;-61
2023/09/01 12:19:27;;;;;;;6.85;2.72;;;19.20;1.00;;;;;;5076546;28;20563;-61
2023/09/01 12:21:54;;;;;;;9.00;3.08;;;19.30;1.00;;;;;;5078657;28;20097;-61
2023/09/01 12:24:20;;;;;;;7.63;2.50;;;19.50;1.00;;;;;;5078335;28;20052;-61
2023/09/01 12:26:49;;;;;;;7.20;2.20;;;19.60;1.00;;;;;;5077205;28;20785;-62
2023/09/01 12:29:15;;;;;;;7.28;2.20;;;19.60;1.00;;;;;;5079413;28;20056;-61
2023/09/01 12:31:42;;;;;;;6.45;2.40;;;19.70;1.00;;;;;;5057619;28;20460;-61
2023/09/01 12:34:08;;;;;;;7.10;2.15;;;19.50;1.00;;;;;;5083082;28;20050;-61
2023/09/01 12:36:33;;;;;;;9.85;3.58;;;19.70;1.00;;;;;;5080596;28;20036;-60
2023/09/01 12:38:59;;;;;;;9.63;3.28;;;19.60;1.00;;;;;;5084995;28;20044;-62
2023/09/01 12:41:25;;;;;;;9.48;4.18;;;19.60;1.00;;;;;;5085354;28;20388;-62
2023/09/01 12:43:50;;;;;;;7.70;3.03;;;19.60;1.00;;;;;;5082358;28;20119;-62
2023/09/01 12:46:16;;;;;;;6.85;2.50;;;19.80;1.00;;;;;;5082543;28;20047;-63
2023/09/01 12:48:42;;;;;;;6.63;2.33;;;19.80;1.00;;;;;;5079806;28;20048;-62
2023/09/01 12:51:08;;;;;;;8.82;2.42;;;19.90;1.00;;;;;;5082817;28;20048;-62
2023/09/01 12:53:33;;;;;;;11.18;3.00;;;20.10;1.00;;;;;;5081107;28;20079;-62